createdAt,value
2023-12-15T06:05:10.462Z,47.50
2023-12-15T06:15:13.027Z,47.33
2023-12-15T06:25:15.404Z,41.60
2023-12-15T06:35:18.631Z,44.47
2023-12-15T06:45:20.957Z,37.63
2023-12-15T06:55:26.220Z,44.58
2023-12-15T07:05:28.599Z,36.42
2023-12-15T07:15:30.959Z,39.55
2023-12-15T07:25:33.310Z,43.47
2023-12-15T07:35:36.873Z,31.88
2023-12-15T07:45:39.230Z,33.63
2023-12-15T07:55:44.309Z,41.05
2023-12-15T08:05:46.719Z,128.48
2023-12-15T08:15:49.187Z,49.92
2023-12-15T08:25:51.590Z,70.35
2023-12-15T08:35:54.545Z,53.60
2023-12-15T08:45:57.261Z,52.90
2023-12-15T08:55:59.665Z,41.78
2023-12-15T09:16:07.485Z,39.25
2023-12-15T09:26:09.846Z,92.45
2023-12-15T09:36:12.377Z,23.75
2023-12-15T09:46:14.999Z,25.70
2023-12-15T09:56:17.984Z,6.95
2023-12-15T10:06:20.550Z,14.38
2023-12-15T10:16:22.956Z,33.38
2023-12-15T10:26:25.325Z,13.38
2023-12-15T10:36:27.697Z,18.08
2023-12-15T10:46:30.136Z,7.65
2023-12-15T10:56:39.251Z,11.05
2023-12-15T11:06:42.003Z,18.83
2023-12-15T11:16:46.619Z,5.25
2023-12-15T11:26:50.255Z,6.72
2023-12-15T11:47:14.889Z,10.98
2023-12-15T11:57:17.594Z,14.55
2023-12-15T12:07:21.519Z,12.15
2023-12-15T12:17:26.955Z,10.07
2023-12-15T12:27:36.727Z,7.97
2023-12-15T12:37:39.280Z,5.22
2023-12-15T12:47:43.125Z,5.32
2023-12-15T12:57:45.597Z,6.60
2023-12-15T13:07:47.955Z,9.13
2023-12-15T13:17:50.700Z,6.32
2023-12-15T13:27:53.535Z,6.07
2023-12-15T13:37:56.092Z,5.43
2023-12-15T13:47:58.684Z,4.63
2023-12-15T13:58:01.228Z,5.13
2023-12-15T14:08:08.202Z,5.35
2023-12-15T14:18:16.945Z,4.68
2023-12-15T14:28:19.400Z,11.75
2023-12-15T14:38:21.914Z,3.95
2023-12-15T14:48:24.514Z,9.38
2023-12-15T14:58:27.028Z,8.75
2023-12-15T15:08:29.465Z,10.43
2023-12-15T15:18:33.923Z,47.13
2023-12-15T15:28:36.243Z,47.13
2023-12-15T15:38:38.740Z,22.02
2023-12-15T15:48:41.287Z,110.60
2023-12-15T15:58:44.348Z,214.48
2023-12-15T16:08:46.941Z,154.25
2023-12-15T16:18:49.858Z,247.45
2023-12-15T16:28:52.301Z,17.73
2023-12-15T16:38:54.671Z,11.15
2023-12-15T16:48:57.682Z,9.20
2023-12-15T16:59:00.102Z,11.57
2023-12-15T17:09:02.885Z,11.93
2023-12-15T17:19:05.511Z,8.68
2023-12-15T17:29:08.121Z,7.97
2023-12-15T17:39:10.919Z,9.15
2023-12-15T17:49:14.160Z,14.25
2023-12-15T17:59:16.661Z,10.45
2023-12-15T18:09:19.342Z,8.13
2023-12-15T18:19:23.287Z,8.18
2023-12-15T18:29:26.435Z,12.00
2023-12-15T18:39:29.122Z,8.25
2023-12-15T18:49:32.583Z,12.73
2023-12-15T18:59:34.929Z,10.35
2023-12-15T19:09:38.800Z,12.35
2023-12-15T19:19:42.394Z,7.32
2023-12-15T19:29:46.783Z,10.35
2023-12-15T19:39:50.710Z,6.93
2023-12-15T19:49:53.177Z,7.55
2023-12-15T19:59:56.166Z,8.38
2023-12-15T20:09:59.018Z,6.25
2023-12-15T20:20:01.527Z,7.03
2023-12-15T20:30:04.296Z,12.77
2023-12-15T20:40:07.541Z,6.72
2023-12-15T20:50:10.534Z,10.77
2023-12-15T21:00:15.109Z,6.30
2023-12-15T21:20:14.418Z,15.50
2023-12-15T21:30:19.070Z,11.10
2023-12-15T21:40:23.166Z,19.23
2023-12-15T21:50:26.612Z,17.17
2023-12-15T22:10:12.674Z,24.20
2023-12-15T22:20:15.176Z,33.10
2023-12-15T22:30:17.748Z,16.13
2023-12-15T22:40:20.146Z,34.72
2023-12-15T23:10:13.056Z,16.98
2023-12-15T23:20:15.739Z,15.88
2023-12-15T23:30:19.619Z,19.40
2023-12-15T23:40:22.219Z,10.70
2023-12-15T23:50:24.683Z,13.57
